createdAt,value
2023-05-01T00:01:01.384Z,101377.19
2023-05-01T00:03:29.805Z,101371.84
2023-05-01T00:06:03.479Z,101370.94
2023-05-01T00:08:32.057Z,101378.75
2023-05-01T00:11:05.126Z,101373.16
2023-05-01T00:13:33.896Z,101370.63
2023-05-01T00:16:09.097Z,101367.00
2023-05-01T00:18:37.901Z,101370.59
2023-05-01T00:21:07.145Z,101359.13
2023-05-01T00:23:38.308Z,101365.53
2023-05-01T00:26:07.930Z,101356.88
2023-05-01T00:28:36.738Z,101348.22
2023-05-01T00:31:06.994Z,101342.84
2023-05-01T00:33:35.552Z,101350.16
2023-05-01T00:36:04.038Z,101343.47
2023-05-01T00:38:32.486Z,101343.16
2023-05-01T00:41:01.115Z,101337.84
2023-05-01T00:43:30.707Z,101333.38
2023-05-01T00:45:59.376Z,101332.28
2023-05-01T00:48:29.548Z,101337.22
2023-05-01T00:51:00.186Z,101331.06
2023-05-01T00:53:29.754Z,101324.66
2023-05-01T00:55:59.441Z,101318.22
2023-05-01T00:58:28.161Z,101315.69
2023-05-01T01:00:58.642Z,101312.13
2023-05-01T01:03:29.033Z,101310.47
2023-05-01T01:06:06.373Z,101308.50
2023-05-01T01:08:43.638Z,101299.94
2023-05-01T01:11:23.781Z,101299.66
2023-05-01T01:14:00.456Z,101294.34
2023-05-01T01:16:35.217Z,101293.47
2023-05-01T01:19:26.089Z,101291.38
2023-05-01T01:22:03.816Z,101290.13
2023-05-01T01:25:00.775Z,101282.91
2023-05-01T01:28:07.535Z,101279.38
2023-05-01T01:31:19.037Z,101278.34
2023-05-01T01:34:07.236Z,101277.75
2023-05-01T01:36:49.209Z,101274.09
2023-05-01T01:39:31.702Z,101272.97
2023-05-01T01:42:01.826Z,101266.16
2023-05-01T01:44:35.727Z,101268.50
2023-05-01T01:47:09.498Z,101269.03
2023-05-01T01:49:46.069Z,101260.03
2023-05-01T01:52:17.321Z,101270.03
2023-05-01T01:54:53.472Z,101256.59
2023-05-01T01:57:25.658Z,101260.31
2023-05-01T01:59:56.777Z,101257.00
2023-05-01T02:02:28.776Z,101251.75
2023-05-01T02:04:59.692Z,101239.53
2023-05-01T02:07:30.790Z,101235.59
2023-05-01T02:10:00.732Z,101237.00
2023-05-01T02:12:30.079Z,101238.19
2023-05-01T02:15:01.232Z,101241.22
2023-05-01T02:17:31.945Z,101235.06
2023-05-01T02:20:05.328Z,101228.44
2023-05-01T02:22:35.173Z,101233.97
2023-05-01T02:25:05.852Z,101225.28
2023-05-01T02:27:39.869Z,101223.03
2023-05-01T02:30:10.246Z,101215.44
2023-05-01T02:32:39.335Z,101210.44
2023-05-01T02:35:10.598Z,101201.25
2023-05-01T02:37:40.122Z,101206.84
2023-05-01T02:40:11.579Z,101204.84
2023-05-01T02:42:41.225Z,101198.41
2023-05-01T02:45:17.119Z,101190.75
2023-05-01T02:47:47.507Z,101188.56
2023-05-01T02:50:18.498Z,101192.44
2023-05-01T02:52:47.633Z,101189.38
2023-05-01T02:55:17.799Z,101187.31
2023-05-01T02:57:46.314Z,101183.00
2023-05-01T03:00:15.784Z,101186.81
2023-05-01T03:02:44.741Z,101175.91
2023-05-01T03:05:13.856Z,101175.09
2023-05-01T03:07:44.176Z,101174.25
2023-05-01T03:10:14.002Z,101163.09
2023-05-01T03:12:43.020Z,101173.97
2023-05-01T03:15:13.582Z,101164.97
2023-05-01T03:17:42.389Z,101166.88
2023-05-01T03:20:12.766Z,101159.69
2023-05-01T03:22:44.530Z,101152.72
2023-05-01T03:25:15.387Z,101148.66
2023-05-01T03:27:43.852Z,101143.94
2023-05-01T03:30:13.488Z,101149.19
2023-05-01T03:32:42.358Z,101142.25
2023-05-01T03:35:11.349Z,101138.16
2023-05-01T03:37:40.032Z,101137.81
2023-05-01T03:40:14.049Z,101140.16
2023-05-01T03:42:42.945Z,101132.22
2023-05-01T03:45:12.592Z,101133.25
2023-05-01T03:47:41.416Z,101129.06
2023-05-01T03:50:11.613Z,101129.59
2023-05-01T03:52:40.283Z,101129.06
2023-05-01T03:55:11.600Z,101125.50
2023-05-01T03:57:40.254Z,101131.31
2023-05-01T04:00:12.147Z,101129.59
2023-05-01T04:02:40.956Z,101121.53
2023-05-01T04:05:11.206Z,101125.53
2023-05-01T04:07:40.032Z,101120.81
2023-05-01T04:10:11.991Z,101117.19
2023-05-01T04:12:41.149Z,101118.00
2023-05-01T04:15:11.482Z,101110.72
2023-05-01T04:17:41.188Z,101113.19
2023-05-01T04:20:11.237Z,101118.75
2023-05-01T04:22:39.923Z,101113.47
2023-05-01T04:25:11.874Z,101116.78
2023-05-01T04:27:40.408Z,101108.81
2023-05-01T04:30:11.097Z,101108.22
2023-05-01T04:32:39.983Z,101104.00
2023-05-01T04:35:12.663Z,101111.47
2023-05-01T04:37:41.403Z,101103.69
2023-05-01T04:40:14.378Z,101100.47
2023-05-01T04:42:43.098Z,101100.22
2023-05-01T04:45:13.240Z,101093.84
2023-05-01T04:47:41.953Z,101098.38
2023-05-01T04:50:12.213Z,101097.00
2023-05-01T04:52:41.330Z,101091.44
2023-05-01T04:55:12.938Z,101099.28
2023-05-01T04:57:41.475Z,101103.78
2023-05-01T05:00:11.862Z,101101.91
2023-05-01T05:02:42.131Z,101101.97
2023-05-01T05:05:11.520Z,101110.66
2023-05-01T05:07:40.534Z,101103.72
2023-05-01T05:10:12.410Z,101104.03
2023-05-01T05:12:41.275Z,101104.22
2023-05-01T05:15:11.814Z,101099.38
2023-05-01T05:17:40.538Z,101108.47
2023-05-01T05:20:11.140Z,101107.84
2023-05-01T05:22:39.847Z,101103.09
2023-05-01T05:25:11.749Z,101109.88
2023-05-01T05:27:40.863Z,101109.00
2023-05-01T05:30:11.797Z,101106.72
2023-05-01T05:32:40.613Z,101109.53
2023-05-01T05:35:11.194Z,101111.75
2023-05-01T05:37:39.901Z,101107.53
2023-05-01T05:40:12.589Z,101105.03
2023-05-01T05:42:41.250Z,101110.34
2023-05-01T05:45:11.956Z,101112.84
2023-05-01T05:47:41.346Z,101109.22
2023-05-01T05:50:11.747Z,101104.50
2023-05-01T05:52:40.625Z,101096.22
2023-05-01T05:55:11.694Z,101108.28
2023-05-01T05:57:40.438Z,101104.41
2023-05-01T06:00:10.966Z,101101.94
2023-05-01T06:02:39.543Z,101100.78
2023-05-01T06:05:10.797Z,101101.28
2023-05-01T06:07:40.447Z,101104.59
2023-05-01T06:10:12.351Z,101112.97
2023-05-01T06:12:46.197Z,101105.94
2023-05-01T06:15:18.112Z,101109.28
2023-05-01T06:17:46.768Z,101107.03
2023-05-01T06:20:15.331Z,101106.75
2023-05-01T06:22:44.250Z,101107.28
2023-05-01T06:25:15.199Z,101106.75
2023-05-01T06:27:43.643Z,101104.84
2023-05-01T06:30:14.686Z,101103.75
2023-05-01T06:32:43.791Z,101102.69
2023-05-01T06:35:12.305Z,101101.00
2023-05-01T06:37:42.655Z,101108.25
2023-05-01T06:40:13.928Z,101100.69
2023-05-01T06:42:42.977Z,101105.78
2023-05-01T06:45:11.968Z,101102.72
2023-05-01T06:47:41.089Z,101100.72
2023-05-01T06:50:11.958Z,101103.00
2023-05-01T06:52:41.484Z,101101.38
2023-05-01T06:55:12.562Z,101099.34
2023-05-01T06:57:43.354Z,101095.41
2023-05-01T07:00:14.055Z,101095.94
2023-05-01T07:02:43.571Z,101099.00
2023-05-01T07:05:12.728Z,101097.63
2023-05-01T07:07:47.398Z,101096.44
2023-05-01T07:10:19.288Z,101103.25
2023-05-01T07:12:49.625Z,101097.28
2023-05-01T07:15:18.925Z,101094.75
2023-05-01T07:17:47.815Z,101093.91
2023-05-01T07:20:17.527Z,101102.34
2023-05-01T07:22:46.369Z,101088.13
2023-05-01T07:25:15.097Z,101099.47
2023-05-01T07:27:43.982Z,101099.53
2023-05-01T07:30:15.096Z,101098.41
2023-05-01T07:32:43.664Z,101103.88
2023-05-01T07:35:12.443Z,101093.81
2023-05-01T07:37:43.252Z,101096.59
2023-05-01T07:40:13.496Z,101102.41
2023-05-01T07:42:42.772Z,101087.84
2023-05-01T07:45:14.183Z,101092.38
2023-05-01T07:47:44.357Z,101081.78
2023-05-01T07:50:17.206Z,101085.72
2023-05-01T07:52:45.745Z,101082.78
2023-05-01T07:55:14.305Z,101077.41
2023-05-01T07:57:42.899Z,101077.50
2023-05-01T08:00:15.248Z,101080.63
2023-05-01T08:02:43.833Z,101079.38
2023-05-01T08:05:12.339Z,101073.72
2023-05-01T08:07:41.216Z,101074.75
2023-05-01T08:10:11.190Z,101082.22
2023-05-01T08:12:39.657Z,101076.50
2023-05-01T08:15:10.482Z,101082.38
2023-05-01T08:17:40.331Z,101075.06
2023-05-01T08:20:11.245Z,101091.53
2023-05-01T08:22:39.800Z,101078.69
2023-05-01T08:25:09.990Z,101085.88
2023-05-01T08:27:41.205Z,101076.44
2023-05-01T08:30:10.842Z,101073.47
2023-05-01T08:32:40.706Z,101078.59
2023-05-01T08:35:09.976Z,101079.91
2023-05-01T08:37:38.546Z,101083.66
2023-05-01T08:40:11.695Z,101079.97
2023-05-01T08:42:40.427Z,101080.91
2023-05-01T08:45:11.967Z,101088.66
2023-05-01T08:47:43.556Z,101080.13
2023-05-01T08:50:14.462Z,101072.31
2023-05-01T08:52:43.965Z,101078.63
2023-05-01T08:55:16.144Z,101079.06
2023-05-01T08:57:48.095Z,101080.09
2023-05-01T09:00:21.184Z,101082.97
2023-05-01T09:02:52.529Z,101080.72
2023-05-01T09:05:22.492Z,101077.91
2023-05-01T09:07:51.256Z,101075.13
2023-05-01T09:10:21.095Z,101071.78
2023-05-01T09:12:58.950Z,101077.31
2023-05-01T09:15:28.753Z,101064.38
2023-05-01T09:18:03.661Z,101063.34
2023-05-01T09:20:33.620Z,101068.84
2023-05-01T09:23:02.240Z,101072.47
2023-05-01T09:25:31.694Z,101068.22
2023-05-01T09:28:00.626Z,101067.66
2023-05-01T09:30:35.135Z,101065.50
2023-05-01T09:33:12.839Z,101071.94
2023-05-01T09:35:53.281Z,101065.31
2023-05-01T09:38:29.137Z,101068.59
2023-05-01T09:41:06.687Z,101059.34
2023-05-01T09:43:40.475Z,101062.63
2023-05-01T09:46:12.718Z,101060.44
2023-05-01T09:48:42.998Z,101066.00
2023-05-01T09:51:27.397Z,101059.66
2023-05-01T09:54:03.259Z,101058.00
2023-05-01T09:56:34.540Z,101068.34
2023-05-01T09:59:19.906Z,101065.78
2023-05-01T10:01:50.694Z,101064.53
2023-05-01T10:04:32.164Z,101062.84
2023-05-01T10:07:12.545Z,101052.28
2023-05-01T10:09:41.401Z,101061.31
2023-05-01T10:12:10.108Z,101050.81
2023-05-01T10:14:53.461Z,101062.50
2023-05-01T10:17:22.430Z,101062.63
2023-05-01T10:19:53.152Z,101064.75
2023-05-01T10:22:23.182Z,101058.50
2023-05-01T10:24:52.344Z,101056.44
2023-05-01T10:27:24.851Z,101057.38
2023-05-01T10:29:55.923Z,101056.06
2023-05-01T10:32:25.283Z,101052.16
2023-05-01T10:35:03.581Z,101054.66
2023-05-01T10:37:39.760Z,101050.78
2023-05-01T10:40:47.631Z,101038.34
2023-05-01T10:43:26.003Z,101039.03
2023-05-01T10:46:27.057Z,101040.00
2023-05-01T10:48:57.416Z,101035.00
2023-05-01T10:51:28.871Z,101043.19
2023-05-01T10:54:25.681Z,101041.84
2023-05-01T10:56:55.812Z,101034.75
2023-05-01T10:59:24.298Z,101024.31
2023-05-01T11:01:54.086Z,101027.97
2023-05-01T11:04:51.539Z,101022.66
2023-05-01T11:07:23.517Z,101020.41
2023-05-01T11:09:55.636Z,101020.94
2023-05-01T11:12:51.209Z,101020.78
2023-05-01T11:15:31.303Z,101012.81
2023-05-01T11:18:01.775Z,101020.13
2023-05-01T11:20:52.244Z,101019.34
2023-05-01T11:23:25.568Z,101015.13
2023-05-01T11:26:06.353Z,101016.78
2023-05-01T11:28:36.139Z,101014.56
2023-05-01T11:31:05.039Z,101014.94
2023-05-01T11:33:34.694Z,101019.50
2023-05-01T11:36:05.089Z,101016.00
2023-05-01T11:38:35.099Z,101007.19
2023-05-01T11:41:06.147Z,101016.31
2023-05-01T11:43:39.747Z,101006.66
2023-05-01T11:46:09.576Z,101005.31
2023-05-01T11:48:39.771Z,100998.28
2023-05-01T11:51:15.544Z,101002.75
2023-05-01T11:53:58.856Z,100994.94
2023-05-01T11:56:27.870Z,100985.19
2023-05-01T11:58:57.710Z,100997.63
2023-05-01T12:01:36.274Z,100989.38
2023-05-01T12:04:05.621Z,100994.16
2023-05-01T12:06:40.954Z,100994.28
2023-05-01T12:09:16.983Z,100991.34
2023-05-01T12:11:46.579Z,100992.88
2023-05-01T12:14:19.696Z,100989.78
2023-05-01T12:16:48.629Z,100987.72
2023-05-01T12:19:19.730Z,100980.84
2023-05-01T12:21:50.439Z,100985.75
2023-05-01T12:24:21.403Z,100981.28
2023-05-01T12:27:03.730Z,100984.94
2023-05-01T12:29:41.453Z,100981.09
2023-05-01T12:32:11.105Z,100979.63
2023-05-01T12:34:42.088Z,100978.25
2023-05-01T12:37:12.423Z,100980.38
2023-05-01T12:39:45.936Z,100967.38
2023-05-01T12:42:15.649Z,100970.59
2023-05-01T12:44:45.335Z,100966.78
2023-05-01T12:47:14.709Z,100965.34
2023-05-01T12:49:43.564Z,100958.84
2023-05-01T12:52:12.716Z,100959.72
2023-05-01T12:54:45.806Z,100968.81
2023-05-01T12:57:16.103Z,100965.63
2023-05-01T12:59:46.385Z,100959.25
2023-05-01T13:02:18.984Z,100960.00
2023-05-01T13:04:49.314Z,100958.59
2023-05-01T13:07:20.209Z,100964.66
2023-05-01T13:09:59.393Z,100963.75
2023-05-01T13:12:29.719Z,100957.16
2023-05-01T13:14:59.519Z,100957.53
2023-05-01T13:17:30.331Z,100957.06
2023-05-01T13:20:01.512Z,100961.88
2023-05-01T13:22:36.019Z,100960.28
2023-05-01T13:25:17.580Z,100961.16
2023-05-01T13:27:51.353Z,100969.13
2023-05-01T13:30:22.881Z,100961.47
2023-05-01T13:32:51.393Z,100959.44
2023-05-01T13:35:25.616Z,100970.25
2023-05-01T13:37:55.728Z,100968.13
2023-05-01T13:40:28.964Z,100967.00
2023-05-01T13:42:57.711Z,100969.09
2023-05-01T13:45:27.562Z,100968.66
2023-05-01T13:47:57.021Z,100968.34
2023-05-01T13:50:25.793Z,100966.47
2023-05-01T13:52:54.657Z,100976.66
2023-05-01T13:55:26.127Z,100978.75
2023-05-01T13:57:54.930Z,100977.47
2023-05-01T14:00:24.378Z,100984.56
2023-05-01T14:02:55.740Z,100985.22
2023-05-01T14:05:29.785Z,100983.56
2023-05-01T14:07:59.873Z,100998.84
2023-05-01T14:10:31.460Z,100994.34
2023-05-01T14:13:00.777Z,101003.13
2023-05-01T14:15:30.026Z,101012.59
2023-05-01T14:18:01.209Z,100996.19
2023-05-01T14:20:30.319Z,100986.72
2023-05-01T14:22:59.432Z,100998.81
2023-05-01T14:25:31.461Z,101007.75
2023-05-01T14:28:02.550Z,101026.50
2023-05-01T14:30:38.400Z,101035.38
2023-05-01T14:33:11.632Z,101034.09
2023-05-01T14:35:50.079Z,101037.91
2023-05-01T14:38:20.393Z,101038.75
2023-05-01T14:40:51.293Z,101044.09
2023-05-01T14:43:22.466Z,101044.09
2023-05-01T14:45:51.339Z,101061.97
2023-05-01T14:48:25.865Z,101068.53
2023-05-01T14:50:55.554Z,101075.81
2023-05-01T14:53:24.801Z,101073.78
2023-05-01T14:55:55.640Z,101077.06
2023-05-01T14:58:24.798Z,101086.78
2023-05-01T15:00:54.007Z,101093.72
2023-05-01T15:03:22.834Z,101102.59
2023-05-01T15:05:52.377Z,101092.63
2023-05-01T15:08:21.392Z,101100.63
2023-05-01T15:10:50.133Z,101106.94
2023-05-01T15:13:21.791Z,101105.66
2023-05-01T15:15:51.246Z,101104.94
2023-05-01T15:18:20.789Z,101099.59
2023-05-01T15:20:49.342Z,101102.09
2023-05-01T15:23:19.352Z,101101.28
2023-05-01T15:25:50.806Z,101102.47
2023-05-01T15:28:21.737Z,101106.34
2023-05-01T15:30:50.164Z,101117.06
2023-05-01T15:33:19.490Z,101109.72
2023-05-01T15:35:49.016Z,101114.97
2023-05-01T15:38:17.980Z,101109.78
2023-05-01T15:40:50.246Z,101114.28
2023-05-01T15:43:21.220Z,101111.19
2023-05-01T15:45:50.153Z,101110.06
2023-05-01T15:48:18.966Z,101110.00
2023-05-01T15:50:49.322Z,101117.31
2023-05-01T15:53:18.224Z,101115.66
2023-05-01T15:55:46.607Z,101116.50
2023-05-01T15:58:19.273Z,101118.44
2023-05-01T16:00:50.684Z,101118.69
2023-05-01T16:06:08.236Z,101119.31
2023-05-01T16:08:40.219Z,101119.56
2023-05-01T16:11:14.589Z,101127.66
2023-05-01T16:13:45.466Z,101127.94
2023-05-01T16:16:24.553Z,101131.28
2023-05-01T16:18:58.859Z,101127.06
2023-05-01T16:21:29.682Z,101128.44
2023-05-01T16:24:08.737Z,101127.09
2023-05-01T16:26:37.196Z,101128.72
2023-05-01T16:29:09.804Z,101121.69
2023-05-01T16:31:45.259Z,101121.94
2023-05-01T16:34:14.811Z,101123.59
2023-05-01T16:36:44.684Z,101119.09
2023-05-01T16:39:16.387Z,101122.47
2023-05-01T16:41:49.350Z,101127.81
2023-05-01T16:44:19.867Z,101134.81
2023-05-01T16:46:55.161Z,101133.34
2023-05-01T16:49:27.808Z,101122.59
2023-05-01T16:51:57.531Z,101123.94
2023-05-01T16:54:32.003Z,101132.69
2023-05-01T16:57:01.651Z,101133.19
2023-05-01T16:59:31.434Z,101139.09
2023-05-01T17:02:02.135Z,101131.53
2023-05-01T17:04:33.601Z,101131.31
2023-05-01T17:07:02.177Z,101132.41
2023-05-01T17:09:34.311Z,101144.16
2023-05-01T17:12:04.017Z,101138.28
2023-05-01T17:14:32.943Z,101148.09
2023-05-01T17:17:02.734Z,101145.59
2023-05-01T17:19:32.508Z,101148.09
2023-05-01T17:22:01.157Z,101149.47
2023-05-01T17:24:29.672Z,101144.13
2023-05-01T17:26:58.545Z,101161.50
2023-05-01T17:29:29.021Z,101151.13
2023-05-01T17:31:57.762Z,101153.38
2023-05-01T17:34:27.811Z,101157.59
2023-05-01T17:36:57.924Z,101165.13
2023-05-01T17:39:28.309Z,101165.13
2023-05-01T17:41:56.999Z,101169.91
2023-05-01T17:44:26.115Z,101167.09
2023-05-01T17:46:54.784Z,101173.78
2023-05-01T17:49:24.152Z,101171.88
2023-05-01T17:51:54.139Z,101183.88
2023-05-01T17:54:23.019Z,101182.22
2023-05-01T17:56:51.661Z,101177.47
2023-05-01T17:59:20.317Z,101178.81
2023-05-01T18:01:49.525Z,101192.53
2023-05-01T18:04:18.810Z,101192.84
2023-05-01T18:06:47.850Z,101186.41
2023-05-01T18:09:19.706Z,101193.13
2023-05-01T18:11:48.695Z,101193.41
2023-05-01T18:14:17.596Z,101202.06
2023-05-01T18:16:46.701Z,101195.94
2023-05-01T18:19:15.564Z,101198.16
2023-05-01T18:21:44.040Z,101200.25
2023-05-01T18:24:13.238Z,101195.56
2023-05-01T18:26:43.503Z,101193.69
2023-05-01T18:29:12.779Z,101203.19
2023-05-01T18:31:41.495Z,101213.25
2023-05-01T18:34:12.379Z,101210.41
2023-05-01T18:36:41.068Z,101209.59
2023-05-01T18:39:09.953Z,101210.13
2023-05-01T18:41:39.503Z,101214.03
2023-05-01T18:44:10.265Z,101220.75
2023-05-01T18:46:40.116Z,101227.22
2023-05-01T18:49:08.828Z,101227.22
2023-05-01T18:51:38.105Z,101224.97
2023-05-01T18:54:07.933Z,101222.16
2023-05-01T18:56:36.956Z,101216.84
2023-05-01T18:59:09.071Z,101224.94
2023-05-01T19:01:38.839Z,101224.09
2023-05-01T19:04:07.480Z,101234.38
2023-05-01T19:06:36.005Z,101243.06
2023-05-01T19:09:04.828Z,101249.84
2023-05-01T19:11:35.041Z,101250.13
2023-05-01T19:14:04.005Z,101249.88
2023-05-01T19:16:34.452Z,101256.56
2023-05-01T19:19:03.509Z,101249.59
2023-05-01T19:21:32.804Z,101251.28
2023-05-01T19:24:01.371Z,101255.19
2023-05-01T19:26:30.280Z,101252.94
2023-05-01T19:29:00.054Z,101254.06
2023-05-01T19:31:29.202Z,101255.72
2023-05-01T19:34:00.243Z,101263.31
2023-05-01T19:36:29.220Z,101266.38
2023-05-01T19:38:58.055Z,101270.28
2023-05-01T19:41:27.145Z,101273.66
2023-05-01T19:43:56.726Z,101279.25
2023-05-01T19:46:25.682Z,101279.50
2023-05-01T19:48:55.635Z,101275.31
2023-05-01T19:51:26.823Z,101286.47
2023-05-01T19:53:57.206Z,101286.16
2023-05-01T19:56:26.045Z,101284.16
2023-05-01T19:58:55.751Z,101285.78
2023-05-01T20:01:26.698Z,101288.28
2023-05-01T20:03:56.061Z,101293.56
2023-05-01T20:06:26.482Z,101291.03
2023-05-01T20:08:55.603Z,101293.81
2023-05-01T20:11:25.436Z,101301.63
2023-05-01T20:13:54.323Z,101299.91
2023-05-01T20:16:23.801Z,101298.28
2023-05-01T20:18:52.790Z,101296.31
2023-05-01T20:21:21.383Z,101313.34
2023-05-01T20:23:51.865Z,101300.53
2023-05-01T20:26:21.262Z,101314.19
2023-05-01T20:28:51.391Z,101311.38
2023-05-01T20:31:19.813Z,101311.06
2023-05-01T20:33:48.439Z,101312.78
2023-05-01T20:36:17.570Z,101315.28
2023-05-01T20:38:47.694Z,101317.50
2023-05-01T20:41:17.757Z,101318.88
2023-05-01T20:43:48.457Z,101327.84
2023-05-01T20:46:17.598Z,101321.28
2023-05-01T20:48:47.532Z,101330.84
2023-05-01T20:51:17.373Z,101331.97
2023-05-01T20:53:47.348Z,101342.31
2023-05-01T20:56:17.523Z,101338.50
2023-05-01T20:58:46.422Z,101335.78
2023-05-01T21:01:15.216Z,101341.44
2023-05-01T21:03:46.723Z,101349.03
2023-05-01T21:06:16.697Z,101340.31
2023-05-01T21:08:47.939Z,101336.16
2023-05-01T21:11:18.200Z,101353.00
2023-05-01T21:13:47.187Z,101342.69
2023-05-01T21:16:18.001Z,101355.31
2023-05-01T21:18:47.202Z,101358.94
2023-05-01T21:21:19.029Z,101369.13
2023-05-01T21:23:49.214Z,101370.94
2023-05-01T21:26:22.106Z,101376.44
2023-05-01T21:28:51.538Z,101379.25
2023-05-01T21:31:20.504Z,101380.38
2023-05-01T21:33:51.189Z,101384.81
2023-05-01T21:36:20.334Z,101386.78
2023-05-01T21:38:49.122Z,101383.81
2023-05-01T21:41:19.311Z,101390.63
2023-05-01T21:43:48.360Z,101386.50
2023-05-01T21:46:19.801Z,101389.81
2023-05-01T21:48:52.421Z,101390.31
2023-05-01T21:51:27.526Z,101392.81
2023-05-01T21:53:56.542Z,101395.31
2023-05-01T21:56:26.774Z,101390.25
2023-05-01T21:59:02.287Z,101397.50
2023-05-01T22:01:31.326Z,101402.75
2023-05-01T22:04:00.542Z,101404.09
2023-05-01T22:06:30.091Z,101403.59
2023-05-01T22:09:00.912Z,101404.09
2023-05-01T22:11:32.372Z,101401.31
2023-05-01T22:14:02.457Z,101404.97
2023-05-01T22:16:30.887Z,101406.84
2023-05-01T22:19:00.561Z,101411.28
2023-05-01T22:21:31.204Z,101419.97
2023-05-01T22:23:59.709Z,101413.53
2023-05-01T22:26:29.834Z,101414.84
2023-05-01T22:28:59.924Z,101423.72
2023-05-01T22:31:28.652Z,101424.31
2023-05-01T22:33:57.076Z,101431.56
2023-05-01T22:36:26.234Z,101431.03
2023-05-01T22:38:55.797Z,101434.69
2023-05-01T22:41:24.654Z,101438.28
2023-05-01T22:43:58.978Z,101443.78
2023-05-01T22:46:29.369Z,101442.19
2023-05-01T22:49:01.642Z,101446.91
2023-05-01T22:51:31.316Z,101446.56
2023-05-01T22:54:00.923Z,101449.03
2023-05-01T22:56:30.614Z,101459.88
2023-05-01T22:58:59.371Z,101456.63
2023-05-01T23:01:29.572Z,101460.69
2023-05-01T23:03:58.394Z,101461.78
2023-05-01T23:06:28.322Z,101467.94
2023-05-01T23:08:57.525Z,101474.94
2023-05-01T23:11:31.986Z,101478.44
2023-05-01T23:14:02.274Z,101466.19
2023-05-01T23:16:41.882Z,101470.09
2023-05-01T23:19:24.168Z,101471.97
2023-05-01T23:22:05.789Z,101480.59
2023-05-01T23:24:45.090Z,101469.97
2023-05-01T23:27:17.579Z,101484.41
2023-05-01T23:29:58.705Z,101484.94
2023-05-01T23:32:32.451Z,101473.03
2023-05-01T23:35:06.498Z,101483.91
2023-05-01T23:37:35.132Z,101479.44
2023-05-01T23:40:04.694Z,101478.84
2023-05-01T23:42:34.118Z,101472.19
2023-05-01T23:45:03.267Z,101476.00
2023-05-01T23:47:33.366Z,101481.56
2023-05-01T23:50:03.063Z,101484.03
2023-05-01T23:52:32.419Z,101481.16
2023-05-01T23:55:02.607Z,101493.25
2023-05-01T23:57:31.584Z,101492.91
